createdAt,value
2022-10-23T00:01:50.236Z,97196.13
2022-10-23T00:05:50.400Z,97202.03
2022-10-23T00:09:50.465Z,97214.91
2022-10-23T00:13:51.361Z,97200.91
2022-10-23T00:17:54.423Z,97220.78
2022-10-23T00:21:54.629Z,97212.97
2022-10-23T00:25:54.845Z,97210.00
2022-10-23T00:29:55.198Z,97189.13
2022-10-23T00:33:58.147Z,97205.22
2022-10-23T00:37:58.434Z,97219.19
2022-10-23T00:41:59.068Z,97214.63
2022-10-23T00:46:00.969Z,97220.78
2022-10-23T00:50:03.993Z,97228.28
2022-10-23T00:54:23.378Z,97222.94
2022-10-23T00:58:24.843Z,97207.94
2022-10-23T01:02:25.280Z,97217.84
2022-10-23T01:06:40.100Z,97222.41
2022-10-23T01:10:48.319Z,97200.09
2022-10-23T01:15:03.177Z,97204.41
2022-10-23T01:19:15.573Z,97196.63
2022-10-23T01:24:10.152Z,97188.81
2022-10-23T01:28:23.577Z,97189.13
2022-10-23T01:32:34.820Z,97160.16
2022-10-23T01:36:37.334Z,97186.38
2022-10-23T01:40:50.195Z,97180.53
2022-10-23T01:45:01.451Z,97177.91
2022-10-23T01:49:15.612Z,97175.75
2022-10-23T01:53:16.570Z,97159.09
2022-10-23T01:57:22.343Z,97163.94
2022-10-23T02:01:30.976Z,97156.44
2022-10-23T02:05:33.417Z,97157.44
2022-10-23T02:09:36.645Z,97161.72
2022-10-23T02:13:46.905Z,97154.19
2022-10-23T02:18:07.421Z,97149.41
2022-10-23T02:22:15.210Z,97153.06
2022-10-23T02:26:23.480Z,97144.59
2022-10-23T02:30:24.853Z,97149.69
2022-10-23T02:34:41.649Z,97123.47
2022-10-23T02:38:46.751Z,97143.53
2022-10-23T02:42:57.328Z,97133.38
2022-10-23T02:47:13.913Z,97133.63
2022-10-23T02:51:23.894Z,97135.53
2022-10-23T02:55:45.243Z,97114.56
2022-10-23T02:59:50.596Z,97127.34
2022-10-23T03:03:57.415Z,97129.81
2022-10-23T03:08:00.437Z,97128.97
2022-10-23T03:12:00.547Z,97131.75
2022-10-23T03:16:00.784Z,97130.13
2022-10-23T03:20:01.416Z,97146.44
2022-10-23T03:24:04.288Z,97144.53
2022-10-23T03:28:10.688Z,97153.16
2022-10-23T03:32:10.983Z,97139.94
2022-10-23T03:36:12.823Z,97140.16
2022-10-23T03:40:16.710Z,97125.09
2022-10-23T03:44:17.929Z,97141.81
2022-10-23T03:48:18.695Z,97150.91
2022-10-23T03:52:18.848Z,97133.94
2022-10-23T03:56:21.719Z,97115.47
2022-10-23T04:00:22.171Z,97132.19
2022-10-23T04:04:22.527Z,97124.22
2022-10-23T04:08:22.867Z,97133.69
2022-10-23T04:12:29.204Z,97134.44
2022-10-23T04:16:29.659Z,97111.16
2022-10-23T04:20:29.773Z,97112.84
2022-10-23T04:24:33.634Z,97120.91
2022-10-23T04:28:37.814Z,97115.31
2022-10-23T04:32:38.020Z,97111.47
2022-10-23T04:36:38.432Z,97124.97
2022-10-23T04:40:42.607Z,97127.25
2022-10-23T04:44:45.500Z,97123.41
2022-10-23T04:48:46.405Z,97093.25
2022-10-23T04:53:01.755Z,97097.84
2022-10-23T04:57:08.148Z,97107.28
2022-10-23T05:01:29.371Z,97100.53
2022-10-23T05:05:30.538Z,97108.25
2022-10-23T05:09:38.297Z,97107.72
2022-10-23T05:13:58.960Z,97106.22
2022-10-23T05:18:13.466Z,97109.63
2022-10-23T05:22:16.370Z,97090.91
2022-10-23T05:26:23.179Z,97109.44
2022-10-23T05:30:26.123Z,97109.34
2022-10-23T05:34:32.899Z,97121.63
2022-10-23T05:38:37.665Z,97115.22
2022-10-23T05:42:45.557Z,97107.13
2022-10-23T05:46:49.497Z,97115.59
2022-10-23T05:51:23.076Z,97118.81
2022-10-23T05:55:34.180Z,97125.59
2022-10-23T06:00:00.346Z,97124.44
2022-10-23T06:04:02.329Z,97112.66
2022-10-23T06:08:25.286Z,97120.72
2022-10-23T06:12:27.073Z,97091.72
2022-10-23T06:16:28.247Z,97114.13
2022-10-23T06:20:28.861Z,97110.81
2022-10-23T06:24:40.598Z,97101.03
2022-10-23T06:28:45.654Z,97099.69
2022-10-23T06:32:46.330Z,97101.56
2022-10-23T06:36:48.366Z,97110.13
2022-10-23T06:41:14.507Z,97108.59
2022-10-23T06:45:16.942Z,97114.69
2022-10-23T06:49:35.912Z,97118.34
2022-10-23T06:53:38.446Z,97121.09
2022-10-23T06:57:48.834Z,97107.59
2022-10-23T07:01:49.473Z,97115.22
2022-10-23T07:05:50.267Z,97122.84
2022-10-23T07:09:50.455Z,97129.47
2022-10-23T07:14:00.199Z,97127.16
2022-10-23T07:18:00.306Z,97112.31
2022-10-23T07:22:13.441Z,97123.63
2022-10-23T07:26:27.779Z,97121.25
2022-10-23T07:30:30.578Z,97117.72
2022-10-23T07:34:33.153Z,97122.41
2022-10-23T07:38:56.220Z,97110.44
2022-10-23T07:42:56.380Z,97131.91
2022-10-23T07:46:59.423Z,97106.09
2022-10-23T07:51:03.649Z,97119.31
2022-10-23T07:55:04.882Z,97085.50
2022-10-23T07:59:07.971Z,97107.84
2022-10-23T08:03:12.786Z,97105.41
2022-10-23T08:07:13.457Z,97099.19
2022-10-23T08:11:24.777Z,97106.41
2022-10-23T08:15:25.196Z,97075.13
2022-10-23T08:19:33.734Z,97093.13
2022-10-23T08:23:35.365Z,97096.19
2022-10-23T08:27:35.525Z,97064.41
2022-10-23T08:31:37.068Z,97080.50
2022-10-23T08:35:55.864Z,97081.59
2022-10-23T08:40:02.615Z,97064.06
2022-10-23T08:44:45.124Z,97073.41
2022-10-23T08:48:54.217Z,97069.63
2022-10-23T08:53:32.547Z,97064.69
2022-10-23T08:57:43.758Z,97084.81
2022-10-23T09:01:49.788Z,97075.59
2022-10-23T09:06:10.191Z,97065.56
2022-10-23T09:10:42.692Z,97069.78
2022-10-23T09:15:07.209Z,97064.91
2022-10-23T09:19:17.590Z,97067.00
2022-10-23T09:23:22.063Z,97069.50
2022-10-23T09:27:25.954Z,97059.75
2022-10-23T09:31:26.499Z,97012.25
2022-10-23T09:35:29.087Z,97043.41
2022-10-23T09:39:34.524Z,97038.53
2022-10-23T09:43:37.752Z,97031.06
2022-10-23T09:47:39.960Z,97043.53
2022-10-23T09:51:59.178Z,97042.63
2022-10-23T09:56:04.510Z,97047.50
2022-10-23T10:00:21.633Z,97039.09
2022-10-23T10:04:22.780Z,97045.75
2022-10-23T10:08:38.257Z,97053.97
2022-10-23T10:12:58.400Z,97048.31
2022-10-23T10:17:09.055Z,97026.22
2022-10-23T10:21:21.658Z,97037.00
2022-10-23T10:25:30.801Z,97033.53
2022-10-23T10:29:53.500Z,97023.00
2022-10-23T10:34:13.130Z,97012.31
2022-10-23T10:38:38.504Z,97018.69
2022-10-23T10:43:07.806Z,96991.88
2022-10-23T10:47:25.662Z,96983.94
2022-10-23T10:51:38.199Z,96980.13
2022-10-23T10:55:44.393Z,96983.47
2022-10-23T10:59:53.994Z,96971.00
2022-10-23T11:03:59.860Z,96974.09
2022-10-23T11:08:09.964Z,96965.41
2022-10-23T11:12:16.770Z,96961.94
2022-10-23T11:16:24.326Z,96955.34
2022-10-23T11:20:54.137Z,96934.16
2022-10-23T11:25:43.969Z,96927.94
2022-10-23T11:30:15.555Z,96914.66
2022-10-23T11:34:52.540Z,96909.75
2022-10-23T11:38:59.170Z,96904.53
2022-10-23T11:43:01.956Z,96906.84
2022-10-23T11:47:08.452Z,96889.84
2022-10-23T11:51:28.403Z,96877.94
2022-10-23T11:55:31.015Z,96898.44
2022-10-23T11:59:37.954Z,96902.22
2022-10-23T12:03:55.877Z,96897.94
2022-10-23T12:08:02.789Z,96895.94
2022-10-23T12:12:29.867Z,96890.59
2022-10-23T12:16:41.172Z,96891.97
2022-10-23T12:20:50.828Z,96875.84
2022-10-23T12:25:06.029Z,96866.06
2022-10-23T12:29:21.868Z,96840.78
2022-10-23T12:33:37.819Z,96831.88
2022-10-23T12:38:04.383Z,96835.81
2022-10-23T12:42:05.381Z,96838.22
2022-10-23T12:46:20.780Z,96849.50
2022-10-23T12:50:28.753Z,96812.53
2022-10-23T12:54:29.748Z,96823.19
2022-10-23T12:58:33.788Z,96831.56
2022-10-23T13:02:37.286Z,96845.28
2022-10-23T13:06:42.349Z,96822.63
2022-10-23T13:10:43.250Z,96832.03
2022-10-23T13:14:57.380Z,96808.13
2022-10-23T13:18:57.616Z,96792.34
2022-10-23T13:23:13.738Z,96803.38
2022-10-23T13:27:29.648Z,96788.28
2022-10-23T13:31:35.765Z,96790.56
2022-10-23T13:35:37.380Z,96791.97
2022-10-23T13:39:40.186Z,96783.81
2022-10-23T13:43:40.683Z,96791.38
2022-10-23T13:47:41.380Z,96773.56
2022-10-23T13:51:47.566Z,96771.88
2022-10-23T13:55:57.827Z,96782.75
2022-10-23T13:59:58.935Z,96772.09
2022-10-23T14:04:03.933Z,96770.63
2022-10-23T14:08:04.121Z,96768.75
2022-10-23T14:12:07.447Z,96777.88
2022-10-23T14:16:08.448Z,96773.69
2022-10-23T14:20:10.662Z,96778.50
2022-10-23T14:24:11.939Z,96774.41
2022-10-23T14:28:14.642Z,96781.31
2022-10-23T14:32:15.024Z,96774.03
2022-10-23T14:36:15.755Z,96779.94
2022-10-23T14:40:16.153Z,96783.47
2022-10-23T14:44:18.945Z,96755.41
2022-10-23T14:48:19.463Z,96762.31
2022-10-23T14:52:19.688Z,96760.63
2022-10-23T14:56:19.761Z,96756.81
2022-10-23T15:00:22.900Z,96753.00
2022-10-23T15:04:24.213Z,96748.47
2022-10-23T15:08:25.568Z,96750.66
2022-10-23T15:12:26.940Z,96743.34
2022-10-23T15:16:30.449Z,96742.06
2022-10-23T15:20:30.602Z,96733.22
2022-10-23T15:24:30.715Z,96726.94
2022-10-23T15:28:32.528Z,96718.28
2022-10-23T15:32:35.273Z,96726.44
2022-10-23T15:36:35.568Z,96730.00
2022-10-23T15:40:35.639Z,96725.88
2022-10-23T15:44:37.277Z,96731.44
2022-10-23T15:48:40.004Z,96725.00
2022-10-23T15:52:40.180Z,96731.75
2022-10-23T15:56:40.345Z,96724.69
2022-10-23T16:00:40.515Z,96728.56
2022-10-23T16:04:43.169Z,96724.56
2022-10-23T16:08:43.881Z,96722.47
2022-10-23T16:12:44.291Z,96708.56
2022-10-23T16:16:44.953Z,96721.38
2022-10-23T16:20:47.707Z,96720.44
2022-10-23T16:24:47.820Z,96721.38
2022-10-23T16:28:49.995Z,96714.88
2022-10-23T16:32:50.828Z,96714.06
2022-10-23T16:36:54.114Z,96698.94
2022-10-23T16:41:04.923Z,96704.91
2022-10-23T16:45:25.320Z,96712.19
2022-10-23T16:49:25.671Z,96707.94
2022-10-23T16:53:30.884Z,96715.50
2022-10-23T16:57:31.065Z,96724.22
2022-10-23T17:01:34.125Z,96715.03
2022-10-23T17:05:37.510Z,96719.34
2022-10-23T17:09:40.461Z,96689.44
2022-10-23T17:13:45.469Z,96691.38
2022-10-23T17:17:45.891Z,96700.97
2022-10-23T17:21:47.034Z,96711.16
2022-10-23T17:25:49.720Z,96705.13
2022-10-23T17:29:49.934Z,96704.78
2022-10-23T17:33:52.092Z,96709.63
2022-10-23T17:37:52.220Z,96698.75
2022-10-23T17:41:56.006Z,96693.34
2022-10-23T17:45:56.333Z,96688.75
2022-10-23T17:49:56.502Z,96693.81
2022-10-23T17:54:02.773Z,96679.53
2022-10-23T17:58:05.560Z,96696.34
2022-10-23T18:02:05.846Z,96681.25
2022-10-23T18:06:10.782Z,96665.16
2022-10-23T18:10:14.462Z,96699.56
2022-10-23T18:14:17.896Z,96693.88
2022-10-23T18:18:17.994Z,96688.75
2022-10-23T18:26:22.782Z,96699.66
2022-10-23T18:30:25.990Z,96677.38
2022-10-23T18:34:28.992Z,96672.13
2022-10-23T18:38:32.669Z,96678.47
2022-10-23T18:42:34.814Z,96688.78
2022-10-23T18:46:38.690Z,96689.38
2022-10-23T18:50:40.268Z,96687.91
2022-10-23T18:54:40.946Z,96675.75
2022-10-23T18:58:41.396Z,96659.47
2022-10-23T19:02:45.362Z,96655.66
2022-10-23T19:06:48.749Z,96625.50
2022-10-23T19:10:50.829Z,96584.84
2022-10-23T19:14:52.004Z,96581.97
2022-10-23T19:19:01.599Z,96593.94
2022-10-23T19:23:05.377Z,96602.66
2022-10-23T19:27:06.228Z,96635.44
2022-10-23T19:31:07.628Z,96635.44
2022-10-23T19:35:12.652Z,96639.38
2022-10-23T19:39:12.731Z,96642.34
2022-10-23T19:43:12.957Z,96646.94
2022-10-23T19:47:13.121Z,96640.69
2022-10-23T19:51:16.380Z,96660.50
2022-10-23T19:55:16.737Z,96644.31
2022-10-23T19:59:17.224Z,96662.97
2022-10-23T20:03:18.994Z,96696.28
2022-10-23T20:07:25.447Z,96678.97
2022-10-23T20:11:28.859Z,96663.69
2022-10-23T20:15:29.056Z,96698.31
2022-10-23T20:19:29.447Z,96687.97
2022-10-23T20:23:32.491Z,96699.31
2022-10-23T20:31:56.048Z,96710.19
2022-10-23T20:40:00.349Z,96688.22
2022-10-23T20:44:00.460Z,96672.03
2022-10-23T20:48:01.175Z,96703.75
2022-10-23T20:52:02.791Z,96699.34
2022-10-23T20:56:08.542Z,96702.28
2022-10-23T21:00:11.962Z,96770.09
2022-10-23T21:04:15.016Z,96796.84
2022-10-23T21:08:15.425Z,96790.56
2022-10-23T21:12:18.405Z,96770.88
2022-10-23T21:16:24.844Z,96754.75
2022-10-23T21:20:27.978Z,96767.78
2022-10-23T21:24:28.186Z,96744.38
2022-10-23T21:28:31.023Z,96740.41
2022-10-23T21:32:31.093Z,96757.22
2022-10-23T21:36:34.297Z,96718.47
2022-10-23T21:40:40.244Z,96765.31
2022-10-23T21:44:43.590Z,96756.25
2022-10-23T21:48:44.553Z,96760.44
2022-10-23T21:52:45.070Z,96761.66
2022-10-23T21:56:48.777Z,96728.72
2022-10-23T22:00:51.503Z,96772.03
2022-10-23T22:04:51.650Z,96782.97
2022-10-23T22:08:52.263Z,96777.22
2022-10-23T22:12:52.430Z,96779.94
2022-10-23T22:16:56.099Z,96768.78
2022-10-23T22:21:02.480Z,96768.28
2022-10-23T22:25:02.817Z,96791.44
2022-10-23T22:29:06.736Z,96790.53
2022-10-23T22:33:09.383Z,96792.78
2022-10-23T22:37:09.674Z,96794.56
2022-10-23T22:41:11.087Z,96796.78
2022-10-23T22:45:12.914Z,96813.09
2022-10-23T22:49:15.611Z,96811.50
2022-10-23T22:53:16.805Z,96820.41
2022-10-23T22:57:17.121Z,96831.31
2022-10-23T23:01:21.480Z,96830.09
2022-10-23T23:05:24.171Z,96828.75
2022-10-23T23:09:24.289Z,96815.75
2022-10-23T23:13:24.813Z,96837.97
2022-10-23T23:17:24.951Z,96851.94
2022-10-23T23:21:28.398Z,96838.50
2022-10-23T23:25:28.506Z,96824.09
2022-10-23T23:29:29.674Z,96820.88
2022-10-23T23:33:30.839Z,96815.50
2022-10-23T23:37:33.629Z,96812.94
2022-10-23T23:41:33.750Z,96820.53
2022-10-23T23:45:34.363Z,96817.81
2022-10-23T23:49:34.514Z,96830.88
2022-10-23T23:53:37.265Z,96798.56
2022-10-23T23:57:37.392Z,96766.78
